createdAt,value
2022-10-23T00:01:39.694Z,11.09
2022-10-23T00:04:17.044Z,11.05
2022-10-23T00:06:45.075Z,11.03
2022-10-23T00:09:17.382Z,11.01
2022-10-23T00:11:47.442Z,10.98
2022-10-23T00:14:16.302Z,10.96
2022-10-23T00:16:43.679Z,10.92
2022-10-23T00:19:10.878Z,10.88
2022-10-23T00:21:38.669Z,10.86
2022-10-23T00:24:06.614Z,10.85
2022-10-23T00:26:33.536Z,10.84
2022-10-23T00:29:00.587Z,10.81
2022-10-23T00:31:27.465Z,10.78
2022-10-23T00:33:54.381Z,10.79
2022-10-23T00:36:22.288Z,10.75
2022-10-23T00:38:50.721Z,10.76
2022-10-23T00:41:27.898Z,10.73
2022-10-23T00:44:02.143Z,10.72
2022-10-23T00:46:29.453Z,10.70
2022-10-23T00:48:57.520Z,10.69
2022-10-23T00:51:27.129Z,10.68
2022-10-23T00:54:06.508Z,10.69
2022-10-23T00:56:42.404Z,10.66
2022-10-23T00:59:09.282Z,10.68
2022-10-23T01:01:36.774Z,10.65
2022-10-23T01:04:06.689Z,10.64
2022-10-23T01:06:42.465Z,10.65
2022-10-23T01:09:43.711Z,10.63
2022-10-23T01:12:23.023Z,10.64
2022-10-23T01:15:23.839Z,10.61
2022-10-23T01:18:06.360Z,10.60
2022-10-23T01:20:43.706Z,10.61
2022-10-23T01:23:35.957Z,10.61
2022-10-23T01:26:24.164Z,10.60
2022-10-23T01:29:08.832Z,10.59
2022-10-23T01:32:08.026Z,10.60
2022-10-23T01:35:04.587Z,10.60
2022-10-23T01:38:05.752Z,10.61
2022-10-23T01:40:48.748Z,10.61
2022-10-23T01:43:26.151Z,10.63
2022-10-23T01:46:01.923Z,10.64
2022-10-23T01:48:31.498Z,10.64
2022-10-23T01:51:03.970Z,10.64
2022-10-23T01:53:36.258Z,10.64
2022-10-23T01:56:09.260Z,10.63
2022-10-23T01:58:37.034Z,10.66
2022-10-23T02:01:07.472Z,10.64
2022-10-23T02:03:37.795Z,10.62
2022-10-23T02:06:05.080Z,10.62
2022-10-23T02:08:32.408Z,10.64
2022-10-23T02:11:29.716Z,10.63
2022-10-23T02:14:34.553Z,10.63
2022-10-23T02:17:37.059Z,10.62
2022-10-23T02:20:22.674Z,10.61
2022-10-23T02:23:00.359Z,10.60
2022-10-23T02:26:22.076Z,10.60
2022-10-23T02:29:18.548Z,10.57
2022-10-23T02:31:45.764Z,10.56
2022-10-23T02:34:12.908Z,10.54
2022-10-23T02:36:39.779Z,10.53
2022-10-23T02:39:06.752Z,10.52
2022-10-23T02:41:56.515Z,10.53
2022-10-23T02:45:02.758Z,10.51
2022-10-23T02:48:04.476Z,10.50
2022-10-23T02:50:49.771Z,10.49
2022-10-23T02:53:26.396Z,10.47
2022-10-23T02:56:08.863Z,10.48
2022-10-23T02:59:11.034Z,10.47
2022-10-23T03:02:07.090Z,10.46
2022-10-23T03:04:35.121Z,10.46
2022-10-23T03:07:02.210Z,10.44
2022-10-23T03:09:29.632Z,10.43
2022-10-23T03:11:56.563Z,10.42
2022-10-23T03:14:23.453Z,10.44
2022-10-23T03:16:50.304Z,10.45
2022-10-23T03:19:17.200Z,10.46
2022-10-23T03:21:44.096Z,10.49
2022-10-23T03:24:10.992Z,10.52
2022-10-23T03:26:37.898Z,10.54
2022-10-23T03:29:04.790Z,10.55
2022-10-23T03:31:31.643Z,10.58
2022-10-23T03:33:59.383Z,10.56
2022-10-23T03:36:26.456Z,10.60
2022-10-23T03:38:53.784Z,10.61
2022-10-23T03:41:20.673Z,10.64
2022-10-23T03:43:47.542Z,10.66
2022-10-23T03:46:14.550Z,10.67
2022-10-23T03:48:41.999Z,10.67
2022-10-23T03:51:08.908Z,10.66
2022-10-23T03:53:36.171Z,10.67
2022-10-23T03:56:03.708Z,10.66
2022-10-23T03:58:31.437Z,10.66
2022-10-23T04:00:58.993Z,10.67
2022-10-23T04:03:26.086Z,10.67
2022-10-23T04:05:53.031Z,10.65
2022-10-23T04:08:20.245Z,10.65
2022-10-23T04:10:47.343Z,10.65
2022-10-23T04:13:14.295Z,10.64
2022-10-23T04:15:41.204Z,10.64
2022-10-23T04:18:08.072Z,10.65
2022-10-23T04:20:35.002Z,10.63
2022-10-23T04:23:01.902Z,10.65
2022-10-23T04:25:28.815Z,10.65
2022-10-23T04:27:55.674Z,10.65
2022-10-23T04:30:22.547Z,10.65
2022-10-23T04:32:53.287Z,10.66
2022-10-23T04:35:20.820Z,10.65
2022-10-23T04:37:47.736Z,10.66
2022-10-23T04:40:14.732Z,10.66
2022-10-23T04:42:41.953Z,10.66
2022-10-23T04:45:10.070Z,10.67
2022-10-23T04:47:36.998Z,10.64
2022-10-23T04:50:04.956Z,10.63
2022-10-23T04:52:31.848Z,10.63
2022-10-23T04:54:58.700Z,10.63
2022-10-23T04:57:25.575Z,10.63
2022-10-23T04:59:52.425Z,10.62
2022-10-23T05:02:19.373Z,10.61
2022-10-23T05:04:46.228Z,10.64
2022-10-23T05:07:13.110Z,10.66
2022-10-23T05:09:40.087Z,10.65
2022-10-23T05:12:06.975Z,10.66
2022-10-23T05:14:33.868Z,10.68
2022-10-23T05:17:08.005Z,10.68
2022-10-23T05:19:46.072Z,10.68
2022-10-23T05:22:14.378Z,10.68
2022-10-23T05:24:41.277Z,10.69
2022-10-23T05:27:08.143Z,10.70
2022-10-23T05:29:35.052Z,10.72
2022-10-23T05:32:04.984Z,10.73
2022-10-23T05:34:35.655Z,10.74
2022-10-23T05:37:04.791Z,10.78
2022-10-23T05:39:33.152Z,10.79
2022-10-23T05:42:00.572Z,10.81
2022-10-23T05:44:27.450Z,10.85
2022-10-23T05:46:54.344Z,10.87
2022-10-23T05:49:23.732Z,10.90
2022-10-23T05:51:50.719Z,10.93
2022-10-23T05:54:17.712Z,10.95
2022-10-23T05:56:44.647Z,10.98
2022-10-23T05:59:11.523Z,11.02
2022-10-23T06:01:38.582Z,11.05
2022-10-23T06:04:06.260Z,11.07
2022-10-23T06:06:33.173Z,11.08
2022-10-23T06:09:00.132Z,11.09
2022-10-23T06:11:27.053Z,11.11
2022-10-23T06:13:54.010Z,11.13
2022-10-23T06:16:25.338Z,11.13
2022-10-23T06:18:52.225Z,11.14
2022-10-23T06:21:19.627Z,11.16
2022-10-23T06:23:47.388Z,11.17
2022-10-23T06:26:16.636Z,11.16
2022-10-23T06:28:43.620Z,11.17
2022-10-23T06:31:14.477Z,11.16
2022-10-23T06:33:41.972Z,11.17
2022-10-23T06:36:10.422Z,11.18
2022-10-23T06:38:40.890Z,11.19
2022-10-23T06:41:15.511Z,11.19
2022-10-23T06:43:42.689Z,11.20
2022-10-23T06:46:10.087Z,11.20
2022-10-23T06:48:37.168Z,11.23
2022-10-23T06:51:09.759Z,11.23
2022-10-23T06:53:38.401Z,11.24
2022-10-23T06:56:07.301Z,11.25
2022-10-23T06:58:35.934Z,11.27
2022-10-23T07:01:06.953Z,11.28
2022-10-23T07:03:34.775Z,11.31
2022-10-23T07:06:08.389Z,11.32
2022-10-23T07:08:36.059Z,11.33
2022-10-23T07:11:07.117Z,11.38
2022-10-23T07:13:36.063Z,11.41
2022-10-23T07:16:21.287Z,11.44
2022-10-23T07:18:49.889Z,11.46
2022-10-23T07:21:16.779Z,11.51
2022-10-23T07:23:43.736Z,11.52
2022-10-23T07:26:15.166Z,11.56
2022-10-23T07:28:48.067Z,11.59
2022-10-23T07:31:15.284Z,11.63
2022-10-23T07:33:42.153Z,11.68
2022-10-23T07:36:10.370Z,11.73
2022-10-23T07:38:37.277Z,11.79
2022-10-23T07:41:07.775Z,11.84
2022-10-23T07:43:37.592Z,11.89
2022-10-23T07:46:05.194Z,11.94
2022-10-23T07:48:32.077Z,12.00
2022-10-23T07:51:01.732Z,12.06
2022-10-23T07:53:29.031Z,12.12
2022-10-23T07:55:59.314Z,12.18
2022-10-23T07:58:27.754Z,12.24
2022-10-23T08:01:00.209Z,12.28
2022-10-23T08:03:29.383Z,12.33
2022-10-23T08:05:57.878Z,12.39
2022-10-23T08:08:26.663Z,12.44
2022-10-23T08:10:55.660Z,12.51
2022-10-23T08:13:23.306Z,12.57
2022-10-23T08:15:52.788Z,12.61
2022-10-23T08:18:20.136Z,12.68
2022-10-23T08:20:48.920Z,12.73
2022-10-23T08:23:18.667Z,12.82
2022-10-23T08:25:47.312Z,12.82
2022-10-23T08:28:15.629Z,12.86
2022-10-23T08:30:42.551Z,12.91
2022-10-23T08:33:09.881Z,12.97
2022-10-23T08:35:38.636Z,12.97
2022-10-23T08:38:06.627Z,13.06
2022-10-23T08:40:36.096Z,13.12
2022-10-23T08:43:06.898Z,13.16
2022-10-23T08:46:04.130Z,13.19
2022-10-23T08:48:48.218Z,13.24
2022-10-23T08:51:21.899Z,13.32
2022-10-23T08:54:06.567Z,13.37
2022-10-23T08:56:38.276Z,13.38
2022-10-23T08:59:24.967Z,13.43
2022-10-23T09:02:22.299Z,13.49
2022-10-23T09:04:52.837Z,13.51
2022-10-23T09:07:34.018Z,13.60
2022-10-23T09:10:30.662Z,13.67
2022-10-23T09:13:12.780Z,13.73
2022-10-23T09:15:51.222Z,13.80
2022-10-23T09:18:18.116Z,13.87
2022-10-23T09:20:47.181Z,13.90
2022-10-23T09:23:21.483Z,13.89
2022-10-23T09:25:55.361Z,13.99
2022-10-23T09:28:32.349Z,13.99
2022-10-23T09:31:11.859Z,14.00
2022-10-23T09:33:39.662Z,14.05
2022-10-23T09:36:08.378Z,14.07
2022-10-23T09:38:45.294Z,14.02
2022-10-23T09:41:54.138Z,14.05
2022-10-23T09:44:26.672Z,14.05
2022-10-23T09:47:07.425Z,14.05
2022-10-23T09:49:35.691Z,14.04
2022-10-23T09:52:30.240Z,14.03
2022-10-23T09:55:01.363Z,14.07
2022-10-23T09:57:38.154Z,14.13
2022-10-23T10:00:22.319Z,14.08
2022-10-23T10:03:00.324Z,14.15
2022-10-23T10:05:31.592Z,14.17
2022-10-23T10:08:44.405Z,14.23
2022-10-23T10:11:33.591Z,14.22
2022-10-23T10:14:40.932Z,14.30
2022-10-23T10:17:34.706Z,14.31
2022-10-23T10:20:25.192Z,14.37
2022-10-23T10:23:18.348Z,14.38
2022-10-23T10:26:11.249Z,14.44
2022-10-23T10:29:10.989Z,14.42
2022-10-23T10:32:04.791Z,14.50
2022-10-23T10:34:52.585Z,14.52
2022-10-23T10:37:46.108Z,14.52
2022-10-23T10:40:38.487Z,14.57
2022-10-23T10:43:33.675Z,14.57
2022-10-23T10:46:37.454Z,14.63
2022-10-23T10:49:23.468Z,14.63
2022-10-23T10:52:13.875Z,14.64
2022-10-23T10:54:55.220Z,14.70
2022-10-23T10:57:43.734Z,14.76
2022-10-23T11:00:22.083Z,14.77
2022-10-23T11:02:59.787Z,14.78
2022-10-23T11:05:43.566Z,14.78
2022-10-23T11:08:50.054Z,14.88
2022-10-23T11:11:34.982Z,14.89
2022-10-23T11:14:02.705Z,14.89
2022-10-23T11:16:37.901Z,14.95
2022-10-23T11:19:28.991Z,15.02
2022-10-23T11:22:07.138Z,15.04
2022-10-23T11:24:58.240Z,14.97
2022-10-23T11:27:46.881Z,15.06
2022-10-23T11:30:35.976Z,15.14
2022-10-23T11:33:44.006Z,15.16
2022-10-23T11:36:18.683Z,15.22
2022-10-23T11:38:49.643Z,15.28
2022-10-23T11:41:28.379Z,15.41
2022-10-23T11:44:03.904Z,15.46
2022-10-23T11:46:39.927Z,15.54
2022-10-23T11:49:21.209Z,15.69
2022-10-23T11:51:48.218Z,15.78
2022-10-23T11:54:15.112Z,15.85
2022-10-23T11:57:03.185Z,15.95
2022-10-23T11:59:53.879Z,16.05
2022-10-23T12:02:36.698Z,16.10
2022-10-23T12:05:25.646Z,16.12
2022-10-23T12:08:02.342Z,16.17
2022-10-23T12:10:36.273Z,16.21
2022-10-23T12:13:06.112Z,16.26
2022-10-23T12:15:36.885Z,16.29
2022-10-23T12:18:17.935Z,16.31
2022-10-23T12:20:52.524Z,16.39
2022-10-23T12:24:01.299Z,16.34
2022-10-23T12:26:45.728Z,16.39
2022-10-23T12:29:50.416Z,16.44
2022-10-23T12:32:36.263Z,16.49
2022-10-23T12:35:20.754Z,16.50
2022-10-23T12:38:14.348Z,16.56
2022-10-23T12:41:11.402Z,16.51
2022-10-23T12:43:39.927Z,16.55
2022-10-23T12:46:47.778Z,16.56
2022-10-23T12:49:21.460Z,16.48
2022-10-23T12:52:04.399Z,16.62
2022-10-23T12:54:33.667Z,16.59
2022-10-23T12:57:00.676Z,16.64
2022-10-23T12:59:38.672Z,16.64
2022-10-23T13:02:30.610Z,16.66
2022-10-23T13:05:03.458Z,16.69
2022-10-23T13:07:35.917Z,16.69
2022-10-23T13:10:04.159Z,16.74
2022-10-23T13:12:34.468Z,16.77
2022-10-23T13:15:07.583Z,16.80
2022-10-23T13:17:43.807Z,16.75
2022-10-23T13:20:21.584Z,16.73
2022-10-23T13:23:00.593Z,16.76
2022-10-23T13:25:34.850Z,16.81
2022-10-23T13:28:07.865Z,16.79
2022-10-23T13:30:42.961Z,16.79
2022-10-23T13:33:24.975Z,16.76
2022-10-23T13:35:57.665Z,16.78
2022-10-23T13:38:39.601Z,16.85
2022-10-23T13:41:14.967Z,16.85
2022-10-23T13:43:42.651Z,16.86
2022-10-23T13:46:16.279Z,16.95
2022-10-23T13:48:43.376Z,16.92
2022-10-23T13:51:28.301Z,16.94
2022-10-23T13:53:57.030Z,17.01
2022-10-23T13:56:26.290Z,16.97
2022-10-23T13:58:54.323Z,16.98
2022-10-23T14:01:31.718Z,16.96
2022-10-23T14:03:59.904Z,17.03
2022-10-23T14:06:26.786Z,17.04
2022-10-23T14:08:53.733Z,16.98
2022-10-23T14:11:21.283Z,16.98
2022-10-23T14:13:49.172Z,17.03
2022-10-23T14:16:18.963Z,17.06
2022-10-23T14:18:45.907Z,17.02
2022-10-23T14:21:22.637Z,17.00
2022-10-23T14:23:51.077Z,17.05
2022-10-23T14:26:25.295Z,17.03
2022-10-23T14:28:54.587Z,17.01
2022-10-23T14:31:21.896Z,17.09
2022-10-23T14:33:55.840Z,17.15
2022-10-23T14:36:23.647Z,17.16
2022-10-23T14:38:55.743Z,17.18
2022-10-23T14:41:22.822Z,17.17
2022-10-23T14:43:49.756Z,17.18
2022-10-23T14:46:20.225Z,17.14
2022-10-23T14:48:49.447Z,17.16
2022-10-23T14:51:30.039Z,17.11
2022-10-23T14:54:01.670Z,17.08
2022-10-23T14:56:36.814Z,17.08
2022-10-23T14:59:04.814Z,17.08
2022-10-23T15:01:43.486Z,17.04
2022-10-23T15:04:14.339Z,17.06
2022-10-23T15:06:41.868Z,17.04
2022-10-23T15:09:09.047Z,17.04
2022-10-23T15:11:35.935Z,17.04
2022-10-23T15:14:02.820Z,17.03
2022-10-23T15:16:29.738Z,16.98
2022-10-23T15:18:56.658Z,16.98
2022-10-23T15:21:23.933Z,16.93
2022-10-23T15:23:51.143Z,16.85
2022-10-23T15:26:22.922Z,16.86
2022-10-23T15:29:00.022Z,16.85
2022-10-23T15:31:29.863Z,16.76
2022-10-23T15:33:57.825Z,16.78
2022-10-23T15:36:25.127Z,16.75
2022-10-23T15:38:52.284Z,16.74
2022-10-23T15:41:28.652Z,16.72
2022-10-23T15:43:55.601Z,16.70
2022-10-23T15:46:22.507Z,16.67
2022-10-23T15:48:49.388Z,16.66
2022-10-23T15:51:16.396Z,16.65
2022-10-23T15:53:43.292Z,16.62
2022-10-23T15:56:10.296Z,16.59
2022-10-23T15:58:37.187Z,16.60
2022-10-23T16:01:06.505Z,16.52
2022-10-23T16:03:38.862Z,16.54
2022-10-23T16:06:13.647Z,16.54
2022-10-23T16:08:41.468Z,16.52
2022-10-23T16:11:37.512Z,16.53
2022-10-23T16:14:05.277Z,16.47
2022-10-23T16:16:33.951Z,16.48
2022-10-23T16:19:04.927Z,16.44
2022-10-23T16:21:35.734Z,16.44
2022-10-23T16:24:06.240Z,16.45
2022-10-23T16:26:34.321Z,16.43
2022-10-23T16:29:05.773Z,16.42
2022-10-23T16:31:33.892Z,16.40
2022-10-23T16:34:02.586Z,16.40
2022-10-23T16:36:29.978Z,16.40
2022-10-23T16:38:57.121Z,16.42
2022-10-23T16:41:24.242Z,16.38
2022-10-23T16:43:51.630Z,16.38
2022-10-23T16:46:21.647Z,16.40
2022-10-23T16:48:50.956Z,16.38
2022-10-23T16:51:22.387Z,16.34
2022-10-23T16:53:49.419Z,16.33
2022-10-23T16:56:20.239Z,16.35
2022-10-23T16:58:47.434Z,16.36
2022-10-23T17:01:25.241Z,16.33
2022-10-23T17:03:53.439Z,16.31
2022-10-23T17:06:24.660Z,16.28
2022-10-23T17:08:52.439Z,16.24
2022-10-23T17:11:23.443Z,16.25
2022-10-23T17:14:03.617Z,16.22
2022-10-23T17:16:35.830Z,16.23
2022-10-23T17:19:15.811Z,16.24
2022-10-23T17:21:53.322Z,16.20
2022-10-23T17:24:20.676Z,16.20
2022-10-23T17:26:48.362Z,16.20
2022-10-23T17:29:15.686Z,16.16
2022-10-23T17:31:46.549Z,16.15
2022-10-23T17:34:18.472Z,16.16
2022-10-23T17:36:49.527Z,16.18
2022-10-23T17:39:20.065Z,16.15
2022-10-23T17:41:47.499Z,16.15
2022-10-23T17:44:14.714Z,16.13
2022-10-23T17:46:41.920Z,16.13
2022-10-23T17:49:09.785Z,16.13
2022-10-23T17:51:37.267Z,16.14
2022-10-23T17:54:08.630Z,16.14
2022-10-23T17:56:38.280Z,16.12
2022-10-23T17:59:09.953Z,16.12
2022-10-23T18:01:37.158Z,16.15
2022-10-23T18:04:07.266Z,16.12
2022-10-23T18:06:41.779Z,16.11
2022-10-23T18:09:08.929Z,16.11
2022-10-23T18:11:42.609Z,16.13
2022-10-23T18:14:12.906Z,16.14
2022-10-23T18:16:40.680Z,16.16
2022-10-23T18:19:07.906Z,16.20
2022-10-23T18:21:35.813Z,16.20
2022-10-23T18:24:03.892Z,16.23
2022-10-23T18:26:34.964Z,16.22
2022-10-23T18:29:04.847Z,16.27
2022-10-23T18:31:31.923Z,16.32
2022-10-23T18:34:03.106Z,16.28
2022-10-23T18:36:34.379Z,16.29
2022-10-23T18:39:01.799Z,16.34
2022-10-23T18:41:35.659Z,16.35
2022-10-23T18:44:03.559Z,16.36
2022-10-23T18:46:30.441Z,16.39
2022-10-23T18:48:57.358Z,16.41
2022-10-23T18:51:29.352Z,16.43
2022-10-23T18:53:59.659Z,16.42
2022-10-23T18:56:27.763Z,16.46
2022-10-23T18:59:01.631Z,16.48
2022-10-23T19:01:31.017Z,16.47
2022-10-23T19:04:00.702Z,16.53
2022-10-23T19:06:29.033Z,16.51
2022-10-23T19:08:56.859Z,16.51
2022-10-23T19:11:26.524Z,16.43
2022-10-23T19:13:53.508Z,16.46
2022-10-23T19:16:24.500Z,16.38
2022-10-23T19:18:59.195Z,16.36
2022-10-23T19:21:33.021Z,16.29
2022-10-23T19:24:09.159Z,16.29
2022-10-23T19:26:38.103Z,16.21
2022-10-23T19:29:07.768Z,16.29
2022-10-23T19:31:35.002Z,16.31
2022-10-23T19:34:01.884Z,16.24
2022-10-23T19:36:28.743Z,16.21
2022-10-23T19:38:55.661Z,16.14
2022-10-23T19:41:23.167Z,16.14
2022-10-23T19:43:50.057Z,16.16
2022-10-23T19:46:17.047Z,16.11
2022-10-23T19:48:45.604Z,16.06
2022-10-23T19:51:13.456Z,16.05
2022-10-23T19:53:42.519Z,15.99
2022-10-23T19:56:11.398Z,15.97
2022-10-23T19:58:39.551Z,15.97
2022-10-23T20:01:16.530Z,15.94
2022-10-23T20:03:45.475Z,15.90
2022-10-23T20:06:16.141Z,15.82
2022-10-23T20:08:43.517Z,15.81
2022-10-23T20:11:24.382Z,15.78
2022-10-23T20:13:52.016Z,15.77
2022-10-23T20:16:27.053Z,15.73
2022-10-23T20:18:54.577Z,15.70
2022-10-23T20:21:22.803Z,15.67
2022-10-23T20:23:50.039Z,15.63
2022-10-23T20:26:21.797Z,15.58
2022-10-23T20:28:53.289Z,15.51
2022-10-23T20:31:23.028Z,15.45
2022-10-23T20:33:50.859Z,15.40
2022-10-23T20:36:32.946Z,15.33
2022-10-23T20:39:05.925Z,15.28
2022-10-23T20:41:36.710Z,15.24
2022-10-23T20:44:08.989Z,15.19
2022-10-23T20:46:36.144Z,15.12
2022-10-23T20:49:03.655Z,15.10
2022-10-23T20:51:30.799Z,15.02
2022-10-23T20:53:57.892Z,14.95
2022-10-23T20:56:32.304Z,14.92
2022-10-23T20:59:13.243Z,14.88
2022-10-23T21:01:49.370Z,14.88
2022-10-23T21:04:22.934Z,14.84
2022-10-23T21:07:11.309Z,14.82
2022-10-23T21:09:39.885Z,14.80
2022-10-23T21:12:07.640Z,14.76
2022-10-23T21:14:35.597Z,14.74
2022-10-23T21:17:02.914Z,14.75
2022-10-23T21:19:29.800Z,14.71
2022-10-23T21:21:57.275Z,14.72
2022-10-23T21:24:24.536Z,14.72
2022-10-23T21:26:52.042Z,14.71
2022-10-23T21:29:20.316Z,14.71
2022-10-23T21:32:00.950Z,14.69
2022-10-23T21:34:28.347Z,14.67
2022-10-23T21:39:43.543Z,14.65
2022-10-23T21:42:12.092Z,14.66
2022-10-23T21:44:39.013Z,14.67
2022-10-23T21:47:06.145Z,14.65
2022-10-23T21:49:33.117Z,14.64
2022-10-23T21:52:00.020Z,14.65
2022-10-23T21:54:27.059Z,14.67
2022-10-23T21:56:54.166Z,14.66
2022-10-23T21:59:27.801Z,14.66
2022-10-23T22:01:57.244Z,14.67
2022-10-23T22:04:24.288Z,14.70
2022-10-23T22:06:51.279Z,14.69
2022-10-23T22:09:20.964Z,14.73
2022-10-23T22:11:52.598Z,14.73
2022-10-23T22:14:20.473Z,14.72
2022-10-23T22:16:47.925Z,14.74
2022-10-23T22:19:17.452Z,14.77
2022-10-23T22:21:44.821Z,14.76
2022-10-23T22:24:12.100Z,14.77
2022-10-23T22:26:47.666Z,14.79
2022-10-23T22:29:18.624Z,14.78
2022-10-23T22:31:48.858Z,14.74
2022-10-23T22:34:51.791Z,14.74
2022-10-23T22:37:19.532Z,14.72
2022-10-23T22:39:47.425Z,14.75
2022-10-23T22:42:14.288Z,14.79
2022-10-23T22:44:41.155Z,14.82
2022-10-23T22:47:08.072Z,14.82
2022-10-23T22:49:35.007Z,14.82
2022-10-23T22:52:01.948Z,14.85
2022-10-23T22:54:31.131Z,14.83
2022-10-23T22:56:58.290Z,14.83
2022-10-23T22:59:25.182Z,14.80
2022-10-23T23:01:52.213Z,14.83
2022-10-23T23:04:37.240Z,14.82
2022-10-23T23:07:08.158Z,14.85
2022-10-23T23:09:44.313Z,14.84
2022-10-23T23:12:13.703Z,14.85
2022-10-23T23:14:41.466Z,14.88
2022-10-23T23:17:09.801Z,14.88
2022-10-23T23:19:37.395Z,14.87
2022-10-23T23:22:05.237Z,14.87
2022-10-23T23:24:32.467Z,14.83
2022-10-23T23:26:59.362Z,14.78
2022-10-23T23:29:29.360Z,14.75
2022-10-23T23:31:56.222Z,14.71
2022-10-23T23:34:23.145Z,14.67
2022-10-23T23:36:50.047Z,14.69
2022-10-23T23:39:17.444Z,14.65
2022-10-23T23:41:44.324Z,14.63
2022-10-23T23:44:11.267Z,14.64
2022-10-23T23:46:38.148Z,14.66
2022-10-23T23:49:05.175Z,14.69
2022-10-23T23:51:32.431Z,14.78
2022-10-23T23:53:59.420Z,14.77
2022-10-23T23:56:26.429Z,14.76
2022-10-23T23:58:53.330Z,14.79
